createdAt,value
2023-05-23T00:01:02.222Z,23.52
2023-05-23T00:03:28.941Z,23.49
2023-05-23T00:05:56.556Z,23.51
2023-05-23T00:08:23.257Z,23.58
2023-05-23T00:10:49.791Z,23.61
2023-05-23T00:13:16.339Z,23.63
2023-05-23T00:15:43.018Z,23.65
2023-05-23T00:18:11.174Z,23.63
2023-05-23T00:20:40.838Z,23.53
2023-05-23T00:23:09.349Z,23.46
2023-05-23T00:25:36.561Z,23.40
2023-05-23T00:28:04.785Z,23.36
2023-05-23T00:30:32.250Z,23.30
2023-05-23T00:32:59.048Z,23.24
2023-05-23T00:35:26.024Z,23.08
2023-05-23T00:37:52.666Z,22.95
2023-05-23T00:40:19.189Z,22.81
2023-05-23T00:42:46.233Z,22.70
2023-05-23T00:45:12.908Z,22.66
2023-05-23T00:47:42.995Z,22.58
2023-05-23T00:50:12.653Z,22.49
2023-05-23T00:52:39.470Z,22.34
2023-05-23T00:55:06.452Z,22.16
2023-05-23T00:57:34.868Z,22.07
2023-05-23T01:00:02.054Z,22.03
2023-05-23T01:02:30.112Z,22.02
2023-05-23T01:04:56.799Z,21.89
2023-05-23T01:07:23.400Z,21.82
2023-05-23T01:09:50.106Z,21.77
2023-05-23T01:12:31.026Z,21.82
2023-05-23T01:15:08.630Z,21.84
2023-05-23T01:17:44.959Z,21.93
2023-05-23T01:20:12.856Z,21.96
2023-05-23T01:23:02.670Z,22.02
2023-05-23T01:26:02.518Z,22.24
2023-05-23T01:28:35.585Z,22.19
2023-05-23T01:31:04.072Z,22.18
2023-05-23T01:33:32.337Z,22.17
2023-05-23T01:36:02.348Z,22.11
2023-05-23T01:38:28.857Z,22.07
2023-05-23T01:40:55.425Z,22.09
2023-05-23T01:43:22.869Z,22.09
2023-05-23T01:45:56.319Z,22.07
2023-05-23T01:48:23.993Z,22.01
2023-05-23T01:50:50.781Z,21.98
2023-05-23T01:53:21.377Z,22.00
2023-05-23T01:55:48.220Z,22.02
2023-05-23T01:58:14.835Z,22.08
2023-05-23T02:00:41.525Z,21.97
2023-05-23T02:03:08.891Z,21.77
2023-05-23T02:05:35.764Z,21.86
2023-05-23T02:08:02.423Z,21.99
2023-05-23T02:10:29.058Z,22.13
2023-05-23T02:12:55.645Z,22.00
2023-05-23T02:15:22.206Z,21.95
2023-05-23T02:17:48.879Z,21.93
2023-05-23T02:20:15.726Z,21.98
2023-05-23T02:22:42.261Z,22.03
2023-05-23T02:25:08.860Z,21.96
2023-05-23T02:27:35.443Z,22.02
2023-05-23T02:30:02.002Z,21.96
2023-05-23T02:32:30.180Z,21.75
2023-05-23T02:34:57.571Z,21.71
2023-05-23T02:37:24.306Z,21.73
2023-05-23T02:39:50.859Z,21.79
2023-05-23T02:42:17.409Z,21.79
2023-05-23T02:44:44.867Z,21.66
2023-05-23T02:47:11.443Z,21.64
2023-05-23T02:49:37.957Z,21.64
2023-05-23T02:52:05.792Z,21.79
2023-05-23T02:54:32.584Z,21.91
2023-05-23T02:56:59.430Z,21.88
2023-05-23T02:59:26.761Z,21.83
2023-05-23T03:01:53.508Z,21.87
2023-05-23T03:04:20.065Z,21.99
2023-05-23T03:06:47.687Z,22.09
2023-05-23T03:09:15.506Z,22.09
2023-05-23T03:11:42.125Z,22.16
2023-05-23T03:14:08.746Z,22.07
2023-05-23T03:16:35.394Z,21.87
2023-05-23T03:19:02.138Z,21.71
2023-05-23T03:21:29.560Z,21.75
2023-05-23T03:23:56.266Z,21.72
2023-05-23T03:26:23.044Z,21.63
2023-05-23T03:28:51.312Z,21.59
2023-05-23T03:31:19.388Z,21.60
2023-05-23T03:33:46.132Z,21.60
2023-05-23T03:36:12.768Z,21.46
2023-05-23T03:38:39.401Z,21.37
2023-05-23T03:41:06.198Z,21.38
2023-05-23T03:43:32.829Z,21.40
2023-05-23T03:45:59.723Z,21.35
2023-05-23T03:48:26.426Z,21.33
2023-05-23T03:50:53.501Z,21.30
2023-05-23T03:53:20.123Z,21.20
2023-05-23T03:55:46.907Z,21.09
2023-05-23T03:58:13.528Z,20.99
2023-05-23T04:00:42.824Z,21.03
2023-05-23T04:03:11.789Z,21.18
2023-05-23T04:05:40.214Z,21.23
2023-05-23T04:08:07.168Z,21.33
2023-05-23T04:10:34.106Z,21.44
2023-05-23T04:13:00.821Z,21.45
2023-05-23T04:15:28.161Z,21.51
2023-05-23T04:17:58.128Z,21.60
2023-05-23T04:20:26.255Z,21.69
2023-05-23T04:22:52.954Z,21.76
2023-05-23T04:25:20.304Z,21.78
2023-05-23T04:28:11.689Z,21.75
2023-05-23T04:30:38.735Z,21.72
2023-05-23T04:33:06.339Z,21.67
2023-05-23T04:35:34.324Z,21.62
2023-05-23T04:38:01.920Z,21.55
2023-05-23T04:40:29.558Z,21.52
2023-05-23T04:43:02.044Z,21.55
2023-05-23T04:45:44.108Z,21.73
2023-05-23T04:48:24.909Z,21.87
2023-05-23T04:50:52.657Z,21.90
2023-05-23T04:53:19.682Z,21.88
2023-05-23T04:55:47.326Z,21.79
2023-05-23T04:58:16.887Z,21.65
2023-05-23T05:00:44.149Z,21.52
2023-05-23T05:03:12.552Z,21.47
2023-05-23T05:05:43.134Z,21.51
2023-05-23T05:08:09.688Z,21.60
2023-05-23T05:10:36.245Z,21.53
2023-05-23T05:13:03.180Z,21.51
2023-05-23T05:15:37.171Z,21.53
2023-05-23T05:18:03.852Z,21.50
2023-05-23T05:20:30.480Z,21.54
2023-05-23T05:22:58.244Z,21.62
2023-05-23T05:25:24.933Z,21.49
2023-05-23T05:27:52.706Z,21.51
2023-05-23T05:30:20.657Z,21.53
2023-05-23T05:32:52.068Z,21.52
2023-05-23T05:35:18.653Z,21.46
2023-05-23T05:37:46.437Z,21.44
2023-05-23T05:40:13.336Z,21.50
2023-05-23T05:42:42.300Z,21.52
2023-05-23T05:45:11.503Z,21.43
2023-05-23T05:47:39.494Z,21.44
2023-05-23T05:50:07.873Z,21.42
2023-05-23T05:52:38.448Z,21.39
2023-05-23T05:55:13.384Z,21.52
2023-05-23T05:57:44.747Z,21.53
2023-05-23T06:00:19.188Z,21.58
2023-05-23T06:02:51.526Z,21.69
2023-05-23T06:05:29.017Z,21.71
2023-05-23T06:07:55.828Z,21.84
2023-05-23T06:10:22.404Z,21.92
2023-05-23T06:12:50.287Z,21.98
2023-05-23T06:15:17.469Z,22.03
2023-05-23T06:17:45.101Z,22.08
2023-05-23T06:20:12.344Z,22.18
2023-05-23T06:22:42.504Z,22.36
2023-05-23T06:25:09.241Z,22.40
2023-05-23T06:27:35.821Z,22.46
2023-05-23T06:30:03.445Z,22.43
2023-05-23T06:32:30.017Z,22.50
2023-05-23T06:34:57.832Z,22.53
2023-05-23T06:37:24.979Z,22.58
2023-05-23T06:39:51.486Z,22.57
2023-05-23T06:42:18.015Z,22.57
2023-05-23T06:45:01.214Z,22.73
2023-05-23T06:47:27.805Z,22.76
2023-05-23T06:49:54.351Z,22.73
2023-05-23T06:52:20.913Z,22.78
2023-05-23T06:54:47.584Z,22.77
2023-05-23T06:57:14.392Z,22.80
2023-05-23T06:59:40.944Z,22.81
2023-05-23T07:02:07.510Z,22.81
2023-05-23T07:04:34.740Z,22.75
2023-05-23T07:07:06.668Z,22.79
2023-05-23T07:09:33.526Z,22.81
2023-05-23T07:12:08.394Z,22.74
2023-05-23T07:14:38.315Z,22.69
2023-05-23T07:17:05.824Z,22.82
2023-05-23T07:19:33.513Z,22.86
2023-05-23T07:22:00.551Z,22.94
2023-05-23T07:24:27.389Z,22.99
2023-05-23T07:26:56.349Z,22.95
2023-05-23T07:29:23.341Z,22.91
2023-05-23T07:31:53.520Z,22.82
2023-05-23T07:34:21.992Z,22.99
2023-05-23T07:36:55.457Z,23.25
2023-05-23T07:39:24.415Z,23.44
2023-05-23T07:41:52.028Z,23.61
2023-05-23T07:44:21.572Z,23.66
2023-05-23T07:46:50.584Z,23.71
2023-05-23T07:49:17.278Z,23.70
2023-05-23T07:51:45.597Z,23.59
2023-05-23T07:54:18.329Z,23.52
2023-05-23T07:56:45.231Z,23.71
2023-05-23T07:59:13.478Z,23.97
2023-05-23T08:01:42.301Z,24.05
2023-05-23T08:04:12.651Z,24.54
2023-05-23T08:07:00.804Z,24.41
2023-05-23T08:09:41.088Z,24.50
2023-05-23T08:12:09.740Z,24.59
2023-05-23T08:14:49.744Z,24.46
2023-05-23T08:17:23.721Z,24.56
2023-05-23T08:19:51.652Z,24.74
2023-05-23T08:22:18.232Z,24.94
2023-05-23T08:24:44.755Z,24.98
2023-05-23T08:27:11.328Z,24.97
2023-05-23T08:29:38.463Z,24.58
2023-05-23T08:32:05.325Z,24.59
2023-05-23T08:34:32.988Z,24.71
2023-05-23T08:36:59.528Z,24.80
2023-05-23T08:39:26.323Z,24.96
2023-05-23T08:42:13.426Z,24.80
2023-05-23T08:44:40.716Z,24.47
2023-05-23T08:47:08.526Z,24.54
2023-05-23T08:49:47.836Z,24.60
2023-05-23T08:52:18.295Z,24.62
2023-05-23T08:54:48.171Z,24.84
2023-05-23T08:57:14.726Z,24.53
2023-05-23T08:59:46.978Z,24.81
2023-05-23T09:02:14.242Z,25.07
2023-05-23T09:04:41.299Z,24.98
2023-05-23T09:07:16.842Z,25.01
2023-05-23T09:09:44.476Z,25.08
2023-05-23T09:12:13.645Z,24.85
2023-05-23T09:14:41.143Z,24.71
2023-05-23T09:17:08.884Z,24.83
2023-05-23T09:19:41.011Z,24.85
2023-05-23T09:22:28.390Z,24.79
2023-05-23T09:25:09.306Z,24.77
2023-05-23T09:27:38.591Z,24.91
2023-05-23T09:30:09.493Z,25.14
2023-05-23T09:32:36.179Z,24.96
2023-05-23T09:35:08.435Z,24.73
2023-05-23T09:37:40.846Z,25.09
2023-05-23T09:40:13.210Z,25.30
2023-05-23T09:42:45.001Z,25.48
2023-05-23T09:45:12.553Z,25.58
2023-05-23T09:47:39.188Z,25.79
2023-05-23T09:50:06.398Z,25.86
2023-05-23T09:52:39.100Z,26.02
2023-05-23T09:55:06.803Z,25.92
2023-05-23T09:57:40.857Z,25.88
2023-05-23T10:00:14.199Z,25.45
2023-05-23T10:03:13.520Z,25.67
2023-05-23T10:05:48.261Z,25.01
2023-05-23T10:08:32.632Z,24.89
2023-05-23T10:11:14.404Z,24.97
2023-05-23T10:13:45.227Z,24.42
2023-05-23T10:16:26.854Z,24.81
2023-05-23T10:18:56.639Z,24.64
2023-05-23T10:21:46.727Z,24.81
2023-05-23T10:24:13.809Z,24.55
2023-05-23T10:26:40.648Z,24.70
2023-05-23T10:29:07.692Z,24.28
2023-05-23T10:31:35.094Z,24.32
2023-05-23T10:34:27.150Z,24.34
2023-05-23T10:36:59.758Z,24.50
2023-05-23T10:39:51.304Z,24.21
2023-05-23T10:42:47.676Z,24.11
2023-05-23T10:45:15.937Z,24.26
2023-05-23T10:47:42.544Z,24.25
2023-05-23T10:50:13.939Z,24.51
2023-05-23T10:52:41.431Z,24.42
2023-05-23T10:55:15.708Z,24.46
2023-05-23T10:57:43.898Z,24.57
2023-05-23T11:00:24.664Z,24.60
2023-05-23T11:02:57.768Z,24.49
2023-05-23T11:05:28.001Z,24.49
2023-05-23T11:08:35.430Z,24.76
2023-05-23T11:11:10.380Z,24.16
2023-05-23T11:13:56.806Z,24.23
2023-05-23T11:16:27.718Z,24.57
2023-05-23T11:19:14.272Z,24.03
2023-05-23T11:21:40.799Z,24.74
2023-05-23T11:24:09.532Z,24.80
2023-05-23T11:26:36.335Z,24.97
2023-05-23T11:29:05.759Z,25.00
2023-05-23T11:31:38.162Z,24.91
2023-05-23T11:34:05.398Z,24.93
2023-05-23T11:36:33.162Z,24.75
2023-05-23T11:39:03.587Z,24.66
2023-05-23T11:41:35.769Z,24.47
2023-05-23T11:44:02.544Z,24.71
2023-05-23T11:46:29.220Z,24.69
2023-05-23T11:48:56.369Z,24.37
2023-05-23T11:51:22.909Z,24.61
2023-05-23T11:53:49.468Z,24.63
2023-05-23T11:56:16.777Z,24.36
2023-05-23T11:58:45.174Z,24.24
2023-05-23T12:01:12.749Z,24.28
2023-05-23T12:03:51.703Z,24.31
2023-05-23T12:06:23.594Z,24.12
2023-05-23T12:08:50.691Z,23.92
2023-05-23T12:11:18.225Z,24.12
2023-05-23T12:13:45.348Z,23.80
2023-05-23T12:16:13.855Z,23.85
2023-05-23T12:18:40.515Z,23.99
2023-05-23T12:21:08.515Z,23.84
2023-05-23T12:23:35.976Z,23.90
2023-05-23T12:26:07.035Z,23.70
2023-05-23T12:28:45.672Z,24.16
2023-05-23T12:31:13.371Z,24.11
2023-05-23T12:33:41.324Z,24.36
2023-05-23T12:36:07.929Z,24.25
2023-05-23T12:38:38.197Z,24.23
2023-05-23T12:41:09.457Z,24.17
2023-05-23T12:43:41.884Z,24.40
2023-05-23T12:46:08.454Z,24.46
2023-05-23T12:48:35.768Z,24.34
2023-05-23T12:51:03.366Z,24.31
2023-05-23T12:53:29.941Z,24.04
2023-05-23T12:55:56.471Z,23.95
2023-05-23T12:58:23.614Z,23.88
2023-05-23T13:00:50.585Z,24.09
2023-05-23T13:03:18.266Z,23.72
2023-05-23T13:05:44.877Z,23.59
2023-05-23T13:08:12.375Z,23.52
2023-05-23T13:10:39.317Z,23.33
2023-05-23T13:13:05.917Z,23.03
2023-05-23T13:15:32.579Z,23.07
2023-05-23T13:17:59.180Z,23.06
2023-05-23T13:20:30.149Z,22.97
2023-05-23T13:22:57.196Z,22.95
2023-05-23T13:25:24.504Z,23.10
2023-05-23T13:27:51.081Z,22.85
2023-05-23T13:30:17.714Z,22.55
2023-05-23T13:32:44.293Z,22.40
2023-05-23T13:35:11.164Z,22.44
2023-05-23T13:37:37.840Z,22.72
2023-05-23T13:40:04.993Z,22.72
2023-05-23T13:42:31.512Z,22.87
2023-05-23T13:44:58.052Z,22.79
2023-05-23T13:47:24.533Z,22.86
2023-05-23T13:49:51.108Z,22.96
2023-05-23T13:52:17.592Z,22.95
2023-05-23T13:54:44.120Z,22.85
2023-05-23T13:57:10.527Z,22.69
2023-05-23T13:59:37.009Z,22.80
2023-05-23T14:02:03.568Z,22.85
2023-05-23T14:04:30.037Z,22.62
2023-05-23T14:06:56.439Z,22.89
2023-05-23T14:09:23.553Z,22.83
2023-05-23T14:11:52.129Z,22.93
2023-05-23T14:14:18.672Z,22.65
2023-05-23T14:16:45.176Z,22.89
2023-05-23T14:19:11.667Z,22.91
2023-05-23T14:21:38.968Z,22.73
2023-05-23T14:24:06.008Z,22.65
2023-05-23T14:26:32.459Z,22.72
2023-05-23T14:28:58.882Z,22.68
2023-05-23T14:31:25.375Z,22.50
2023-05-23T14:33:51.862Z,22.32
2023-05-23T14:36:18.653Z,22.35
2023-05-23T14:38:48.036Z,22.04
2023-05-23T14:41:14.603Z,21.88
2023-05-23T14:43:41.095Z,21.64
2023-05-23T14:46:07.737Z,21.14
2023-05-23T14:48:34.423Z,20.55
2023-05-23T14:51:01.859Z,20.22
2023-05-23T14:53:28.758Z,20.31
2023-05-23T14:55:55.645Z,20.16
2023-05-23T14:58:23.020Z,20.04
2023-05-23T15:00:49.466Z,20.03
2023-05-23T15:03:16.003Z,20.14
2023-05-23T15:05:43.931Z,20.28
2023-05-23T15:08:12.006Z,19.98
2023-05-23T15:10:38.468Z,19.73
2023-05-23T15:13:04.956Z,20.04
2023-05-23T15:15:37.392Z,19.99
2023-05-23T15:18:06.908Z,20.05
2023-05-23T15:20:34.101Z,20.11
2023-05-23T15:23:00.523Z,19.72
2023-05-23T15:25:43.340Z,19.81
2023-05-23T15:28:14.289Z,19.50
2023-05-23T15:30:41.140Z,19.69
2023-05-23T15:33:07.766Z,19.55
2023-05-23T15:35:34.258Z,19.57
2023-05-23T15:38:00.870Z,19.55
2023-05-23T15:40:27.628Z,19.25
2023-05-23T15:42:54.084Z,19.45
2023-05-23T15:45:20.779Z,19.15
2023-05-23T15:47:47.203Z,19.47
2023-05-23T15:50:14.415Z,19.40
2023-05-23T15:52:40.995Z,19.72
2023-05-23T15:55:07.845Z,19.74
2023-05-23T15:57:34.363Z,19.79
2023-05-23T16:00:01.014Z,19.68
2023-05-23T16:02:27.814Z,19.76
2023-05-23T16:04:54.360Z,19.66
2023-05-23T16:07:20.797Z,19.68
2023-05-23T16:09:47.218Z,19.54
2023-05-23T16:12:13.708Z,19.61
2023-05-23T16:14:40.145Z,19.53
2023-05-23T16:17:07.652Z,19.36
2023-05-23T16:19:35.267Z,19.42
2023-05-23T16:22:01.908Z,19.53
2023-05-23T16:24:28.450Z,19.72
2023-05-23T16:26:54.874Z,19.42
2023-05-23T16:29:21.385Z,19.54
2023-05-23T16:31:47.929Z,19.26
2023-05-23T16:34:14.699Z,19.31
2023-05-23T16:36:41.533Z,19.36
2023-05-23T16:39:08.065Z,19.15
2023-05-23T16:41:34.549Z,18.76
2023-05-23T16:44:01.141Z,19.10
2023-05-23T16:48:54.189Z,18.83
2023-05-23T16:51:20.676Z,18.72
2023-05-23T16:53:47.321Z,18.63
2023-05-23T16:56:13.809Z,18.61
2023-05-23T16:58:40.294Z,18.47
2023-05-23T17:01:07.560Z,18.41
2023-05-23T17:03:34.359Z,18.53
2023-05-23T17:06:01.408Z,18.28
2023-05-23T17:08:27.819Z,18.42
2023-05-23T17:10:54.276Z,18.30
2023-05-23T17:13:20.728Z,18.26
2023-05-23T17:15:47.195Z,18.25
2023-05-23T17:18:13.731Z,18.31
2023-05-23T17:20:40.492Z,17.97
2023-05-23T17:23:07.097Z,18.13
2023-05-23T17:25:33.520Z,18.20
2023-05-23T17:27:59.952Z,18.06
2023-05-23T17:30:26.458Z,18.26
2023-05-23T17:32:52.928Z,18.22
2023-05-23T17:35:19.409Z,18.22
2023-05-23T17:37:45.906Z,18.29
2023-05-23T17:40:13.147Z,18.16
2023-05-23T17:42:40.725Z,18.10
2023-05-23T17:45:09.335Z,18.07
2023-05-23T17:47:36.003Z,18.06
2023-05-23T17:50:06.329Z,18.25
2023-05-23T17:52:32.951Z,18.14
2023-05-23T17:54:59.416Z,18.15
2023-05-23T17:57:26.312Z,18.19
2023-05-23T17:59:52.751Z,18.18
2023-05-23T18:02:19.274Z,18.36
2023-05-23T18:04:45.726Z,18.41
2023-05-23T18:07:12.816Z,18.47
2023-05-23T18:09:39.411Z,18.51
2023-05-23T18:12:06.166Z,18.39
2023-05-23T18:14:32.666Z,18.53
2023-05-23T18:16:59.153Z,18.53
2023-05-23T18:19:25.712Z,18.57
2023-05-23T18:21:52.243Z,18.44
2023-05-23T18:24:18.659Z,18.42
2023-05-23T18:26:45.083Z,18.26
2023-05-23T18:29:11.660Z,18.46
2023-05-23T18:31:38.166Z,18.50
2023-05-23T18:34:04.846Z,18.63
2023-05-23T18:36:32.668Z,18.55
2023-05-23T18:38:59.185Z,18.53
2023-05-23T18:41:27.937Z,18.53
2023-05-23T18:43:55.274Z,18.45
2023-05-23T18:46:24.022Z,18.22
2023-05-23T18:48:50.995Z,18.35
2023-05-23T18:51:17.860Z,18.32
2023-05-23T18:53:44.275Z,18.40
2023-05-23T18:56:10.868Z,18.42
2023-05-23T18:58:37.266Z,18.55
2023-05-23T19:01:03.994Z,18.58
2023-05-23T19:03:32.020Z,18.55
2023-05-23T19:06:02.127Z,18.57
2023-05-23T19:08:32.034Z,18.44
2023-05-23T19:10:59.412Z,18.44
2023-05-23T19:13:26.590Z,18.33
2023-05-23T19:15:53.376Z,18.44
2023-05-23T19:18:20.227Z,18.26
2023-05-23T19:20:47.834Z,18.36
2023-05-23T19:23:14.368Z,18.37
2023-05-23T19:25:42.474Z,18.13
2023-05-23T19:28:09.032Z,18.11
2023-05-23T19:30:36.006Z,18.10
2023-05-23T19:33:02.557Z,17.91
2023-05-23T19:35:29.239Z,17.92
2023-05-23T19:37:56.582Z,17.83
2023-05-23T19:40:24.092Z,17.72
2023-05-23T19:42:50.635Z,17.74
2023-05-23T19:45:18.450Z,17.68
2023-05-23T19:47:45.133Z,17.59
2023-05-23T19:50:14.622Z,17.65
2023-05-23T19:52:41.982Z,17.80
2023-05-23T19:55:09.091Z,17.69
2023-05-23T19:57:36.300Z,17.74
2023-05-23T20:00:03.563Z,17.71
2023-05-23T20:02:30.936Z,17.48
2023-05-23T20:04:57.346Z,17.49
2023-05-23T20:07:23.954Z,17.39
2023-05-23T20:09:50.351Z,17.28
2023-05-23T20:12:16.856Z,17.29
2023-05-23T20:14:43.260Z,17.12
2023-05-23T20:17:09.690Z,17.28
2023-05-23T20:19:36.091Z,17.26
2023-05-23T20:22:02.522Z,17.25
2023-05-23T20:24:31.713Z,17.30
2023-05-23T20:26:58.412Z,17.06
2023-05-23T20:29:24.853Z,17.06
2023-05-23T20:31:51.604Z,17.18
2023-05-23T20:34:18.135Z,17.11
2023-05-23T20:36:44.803Z,17.19
2023-05-23T20:39:11.659Z,17.25
2023-05-23T20:41:42.168Z,17.19
2023-05-23T20:44:12.456Z,17.26
2023-05-23T20:46:40.273Z,17.14
2023-05-23T20:49:07.350Z,17.15
2023-05-23T20:51:35.337Z,17.02
2023-05-23T20:54:03.218Z,16.92
2023-05-23T20:56:30.934Z,16.89
2023-05-23T20:59:00.197Z,16.76
2023-05-23T21:01:27.491Z,16.90
2023-05-23T21:03:54.741Z,16.70
2023-05-23T21:06:21.274Z,16.63
2023-05-23T21:08:47.730Z,16.74
2023-05-23T21:11:14.142Z,16.65
2023-05-23T21:13:40.797Z,16.67
2023-05-23T21:16:08.674Z,16.82
2023-05-23T21:18:35.191Z,16.90
2023-05-23T21:21:01.621Z,16.93
2023-05-23T21:23:28.059Z,16.95
2023-05-23T21:25:55.049Z,16.86
2023-05-23T21:28:21.507Z,16.76
2023-05-23T21:30:48.248Z,16.57
2023-05-23T21:33:14.769Z,16.56
2023-05-23T21:35:41.627Z,16.47
2023-05-23T21:38:08.220Z,16.62
2023-05-23T21:40:34.605Z,16.22
2023-05-23T21:43:01.040Z,16.24
2023-05-23T21:45:27.453Z,16.27
2023-05-23T21:47:53.956Z,16.33
2023-05-23T21:50:20.387Z,16.41
2023-05-23T21:52:46.819Z,16.46
2023-05-23T21:55:13.296Z,16.43
2023-05-23T21:57:39.762Z,16.51
2023-05-23T22:00:12.161Z,16.47
2023-05-23T22:02:41.565Z,16.37
2023-05-23T22:05:08.777Z,16.36
2023-05-23T22:07:35.275Z,16.24
2023-05-23T22:10:01.910Z,16.40
2023-05-23T22:12:28.775Z,16.50
2023-05-23T22:14:55.636Z,16.50
2023-05-23T22:17:22.564Z,16.43
2023-05-23T22:19:51.982Z,16.43
2023-05-23T22:22:19.125Z,16.35
2023-05-23T22:24:45.561Z,16.36
2023-05-23T22:27:12.255Z,16.21
2023-05-23T22:29:38.698Z,16.13
2023-05-23T22:32:05.427Z,15.97
2023-05-23T22:34:31.909Z,15.91
2023-05-23T22:37:00.273Z,15.97
2023-05-23T22:39:27.160Z,15.99
2023-05-23T22:41:53.841Z,15.88
2023-05-23T22:44:20.481Z,15.95
2023-05-23T22:46:46.945Z,16.09
2023-05-23T22:49:13.506Z,16.06
2023-05-23T22:51:40.063Z,15.90
2023-05-23T22:54:06.705Z,15.85
2023-05-23T22:56:33.147Z,15.82
2023-05-23T22:58:59.617Z,15.86
2023-05-23T23:01:26.298Z,15.80
2023-05-23T23:03:52.878Z,15.85
2023-05-23T23:06:21.018Z,15.78
2023-05-23T23:08:47.654Z,15.88
2023-05-23T23:11:14.142Z,15.85
2023-05-23T23:13:40.568Z,15.76
2023-05-23T23:16:08.630Z,15.79
2023-05-23T23:18:35.109Z,15.84
2023-05-23T23:21:01.640Z,15.76
2023-05-23T23:23:28.255Z,15.84
2023-05-23T23:25:54.850Z,15.65
2023-05-23T23:28:21.268Z,15.65
2023-05-23T23:30:47.950Z,15.57
2023-05-23T23:33:14.925Z,15.43
2023-05-23T23:35:41.910Z,15.51
2023-05-23T23:38:08.490Z,15.42
2023-05-23T23:40:34.948Z,15.37
2023-05-23T23:43:01.570Z,15.40
2023-05-23T23:45:28.059Z,15.47
2023-05-23T23:47:54.598Z,15.43
2023-05-23T23:50:21.382Z,15.49
2023-05-23T23:52:47.851Z,15.45
2023-05-23T23:55:14.254Z,15.38
2023-05-23T23:57:40.666Z,15.55
